sensor_id;sensor_type;location;lat;lon;timestamp;pressure;altitude;pressure_sealevel;temperature;humidity
55656;BME280;41530;52.382;5.270;2023-06-22T00:00:58;102173.31;;;26.41;44.33
55656;BME280;41530;52.382;5.270;2023-06-22T00:03:25;102173.50;;;26.39;44.53
55656;BME280;41530;52.382;5.270;2023-06-22T00:05:52;102183.44;;;26.39;44.50
55656;BME280;41530;52.382;5.270;2023-06-22T00:08:19;102181.59;;;26.39;44.22
55656;BME280;41530;52.382;5.270;2023-06-22T00:10:46;102186.16;;;26.39;44.36
55656;BME280;41530;52.382;5.270;2023-06-22T00:13:14;102180.09;;;26.37;44.29
55656;BME280;41530;52.382;5.270;2023-06-22T00:15:41;102174.22;;;26.33;44.71
55656;BME280;41530;52.382;5.270;2023-06-22T00:18:09;102178.78;;;26.33;44.56
55656;BME280;41530;52.382;5.270;2023-06-22T00:20:36;102183.69;;;26.29;44.35
55656;BME280;41530;52.382;5.270;2023-06-22T00:23:05;102185.38;;;26.30;44.62
55656;BME280;41530;52.382;5.270;2023-06-22T00:25:36;102182.84;;;26.29;44.62
55656;BME280;41530;52.382;5.270;2023-06-22T00:28:03;102188.22;;;26.29;44.63
55656;BME280;41530;52.382;5.270;2023-06-22T00:30:31;102187.72;;;26.25;44.48
55656;BME280;41530;52.382;5.270;2023-06-22T00:32:59;102191.81;;;26.21;44.57
55656;BME280;41530;52.382;5.270;2023-06-22T00:35:26;102193.66;;;26.20;44.83
55656;BME280;41530;52.382;5.270;2023-06-22T00:37:56;102194.34;;;26.14;44.84
55656;BME280;41530;52.382;5.270;2023-06-22T00:40:31;102189.13;;;26.13;44.54
55656;BME280;41530;52.382;5.270;2023-06-22T00:42:58;102184.56;;;26.13;44.97
55656;BME280;41530;52.382;5.270;2023-06-22T00:45:26;102176.19;;;26.08;45.33
55656;BME280;41530;52.382;5.270;2023-06-22T00:47:56;102179.41;;;26.04;45.15
55656;BME280;41530;52.382;5.270;2023-06-22T00:50:26;102185.13;;;26.01;45.20
55656;BME280;41530;52.382;5.270;2023-06-22T00:52:55;102177.22;;;25.99;45.37
55656;BME280;41530;52.382;5.270;2023-06-22T00:55:25;102178.06;;;26.00;45.36
55656;BME280;41530;52.382;5.270;2023-06-22T00:57:52;102164.13;;;25.96;45.08
55656;BME280;41530;52.382;5.270;2023-06-22T01:00:23;102166.81;;;25.96;45.36
55656;BME280;41530;52.382;5.270;2023-06-22T01:02:52;102164.75;;;25.98;45.08
55656;BME280;41530;52.382;5.270;2023-06-22T01:05:21;102152.94;;;25.99;45.23
55656;BME280;41530;52.382;5.270;2023-06-22T01:08:04;102158.66;;;26.04;45.39
55656;BME280;41530;52.382;5.270;2023-06-22T01:10:45;102162.03;;;26.06;45.51
55656;BME280;41530;52.382;5.270;2023-06-22T01:13:39;102146.69;;;26.07;45.53
55656;BME280;41530;52.382;5.270;2023-06-22T01:16:18;102153.59;;;26.09;45.50
55656;BME280;41530;52.382;5.270;2023-06-22T01:18:47;102156.94;;;26.11;45.07
55656;BME280;41530;52.382;5.270;2023-06-22T01:21:18;102156.09;;;26.11;44.89
55656;BME280;41530;52.382;5.270;2023-06-22T01:26:47;102157.13;;;26.10;45.42
55656;BME280;41530;52.382;5.270;2023-06-22T01:29:21;102164.38;;;26.09;45.16
55656;BME280;41530;52.382;5.270;2023-06-22T01:31:50;102162.69;;;26.08;45.23
55656;BME280;41530;52.382;5.270;2023-06-22T01:34:24;102159.63;;;26.11;45.25
55656;BME280;41530;52.382;5.270;2023-06-22T01:37:00;102152.59;;;26.02;45.01
55656;BME280;41530;52.382;5.270;2023-06-22T01:39:31;102148.72;;;26.05;44.90
55656;BME280;41530;52.382;5.270;2023-06-22T01:42:02;102140.81;;;26.03;45.16
55656;BME280;41530;52.382;5.270;2023-06-22T01:44:40;102132.94;;;25.94;45.09
55656;BME280;41530;52.382;5.270;2023-06-22T01:47:16;102125.53;;;25.96;44.91
55656;BME280;41530;52.382;5.270;2023-06-22T01:49:51;102134.13;;;25.91;45.38
55656;BME280;41530;52.382;5.270;2023-06-22T01:52:24;102133.97;;;25.92;45.20
55656;BME280;41530;52.382;5.270;2023-06-22T01:55:08;102142.03;;;25.92;45.15
55656;BME280;41530;52.382;5.270;2023-06-22T01:57:49;102156.50;;;26.00;44.95
55656;BME280;41530;52.382;5.270;2023-06-22T02:00:37;102153.78;;;26.00;45.22
55656;BME280;41530;52.382;5.270;2023-06-22T02:03:12;102155.31;;;26.02;45.47
55656;BME280;41530;52.382;5.270;2023-06-22T02:06:04;102133.59;;;25.96;45.35
55656;BME280;41530;52.382;5.270;2023-06-22T02:08:40;102139.47;;;25.99;45.35
55656;BME280;41530;52.382;5.270;2023-06-22T02:11:21;102124.00;;;25.93;45.35
55656;BME280;41530;52.382;5.270;2023-06-22T02:13:55;102135.75;;;26.00;45.00
55656;BME280;41530;52.382;5.270;2023-06-22T02:16:26;102111.88;;;25.89;44.80
55656;BME280;41530;52.382;5.270;2023-06-22T02:19:03;102129.69;;;25.98;45.03
55656;BME280;41530;52.382;5.270;2023-06-22T02:21:35;102132.88;;;26.02;45.08
55656;BME280;41530;52.382;5.270;2023-06-22T02:24:06;102112.22;;;25.86;45.52
55656;BME280;41530;52.382;5.270;2023-06-22T02:26:43;102118.44;;;25.95;45.20
55656;BME280;41530;52.382;5.270;2023-06-22T02:29:24;102120.47;;;25.92;45.37
55656;BME280;41530;52.382;5.270;2023-06-22T02:32:00;102111.88;;;25.89;45.08
55656;BME280;41530;52.382;5.270;2023-06-22T02:34:27;102119.47;;;25.94;45.16
55656;BME280;41530;52.382;5.270;2023-06-22T02:37:03;102113.06;;;25.86;45.09
55656;BME280;41530;52.382;5.270;2023-06-22T02:39:34;102118.47;;;25.86;45.30
55656;BME280;41530;52.382;5.270;2023-06-22T02:42:17;102111.44;;;25.77;45.19
55656;BME280;41530;52.382;5.270;2023-06-22T02:44:54;102124.03;;;25.85;45.15
55656;BME280;41530;52.382;5.270;2023-06-22T02:47:23;102135.81;;;25.92;45.23
55656;BME280;41530;52.382;5.270;2023-06-22T02:53:39;102140.75;;;25.80;45.13
55656;BME280;41530;52.382;5.270;2023-06-22T02:56:23;102127.47;;;25.71;45.63
55656;BME280;41530;52.382;5.270;2023-06-22T02:58:54;102121.91;;;25.72;45.32
55656;BME280;41530;52.382;5.270;2023-06-22T03:01:34;102102.91;;;25.66;45.72
55656;BME280;41530;52.382;5.270;2023-06-22T03:04:18;102110.28;;;25.72;45.70
55656;BME280;41530;52.382;5.270;2023-06-22T03:06:50;102110.28;;;25.72;45.61
55656;BME280;41530;52.382;5.270;2023-06-22T03:09:18;102109.44;;;25.71;45.24
55656;BME280;41530;52.382;5.270;2023-06-22T03:11:51;102102.56;;;25.69;45.52
55656;BME280;41530;52.382;5.270;2023-06-22T03:14:31;102103.75;;;25.66;45.33
55656;BME280;41530;52.382;5.270;2023-06-22T03:17:03;102111.50;;;25.69;45.39
55656;BME280;41530;52.382;5.270;2023-06-22T03:19:41;102103.75;;;25.66;45.66
55656;BME280;41530;52.382;5.270;2023-06-22T03:22:16;102104.75;;;25.65;45.52
55656;BME280;41530;52.382;5.270;2023-06-22T03:24:49;102108.59;;;25.71;45.27
55656;BME280;41530;52.382;5.270;2023-06-22T03:27:22;102117.19;;;25.74;45.53
55656;BME280;41530;52.382;5.270;2023-06-22T03:29:50;102099.38;;;25.65;45.52
55656;BME280;41530;52.382;5.270;2023-06-22T03:32:22;102105.44;;;25.67;45.23
55656;BME280;41530;52.382;5.270;2023-06-22T03:35:09;102111.66;;;25.68;45.75
55656;BME280;41530;52.382;5.270;2023-06-22T03:37:38;102109.66;;;25.62;45.38
55656;BME280;41530;52.382;5.270;2023-06-22T03:40:25;102109.66;;;25.62;45.36
55656;BME280;41530;52.382;5.270;2023-06-22T03:43:07;102092.94;;;25.58;45.31
55656;BME280;41530;52.382;5.270;2023-06-22T03:45:49;102096.00;;;25.63;45.62
55656;BME280;41530;52.382;5.270;2023-06-22T03:48:27;102084.22;;;25.56;45.40
55656;BME280;41530;52.382;5.270;2023-06-22T03:51:05;102093.50;;;25.62;45.45
55656;BME280;41530;52.382;5.270;2023-06-22T03:53:35;102082.19;;;25.58;45.46
55656;BME280;41530;52.382;5.270;2023-06-22T03:56:09;102108.25;;;25.74;45.48
55656;BME280;41530;52.382;5.270;2023-06-22T03:58:40;102092.13;;;25.57;45.46
55656;BME280;41530;52.382;5.270;2023-06-22T04:01:13;102122.28;;;25.69;45.24
55656;BME280;41530;52.382;5.270;2023-06-22T04:03:46;102102.25;;;25.55;45.82
55656;BME280;41530;52.382;5.270;2023-06-22T04:06:18;102100.19;;;25.57;45.67
55656;BME280;41530;52.382;5.270;2023-06-22T04:08:45;102093.97;;;25.57;45.54
55656;BME280;41530;52.382;5.270;2023-06-22T04:11:26;102102.88;;;25.57;45.46
55656;BME280;41530;52.382;5.270;2023-06-22T04:13:54;102101.75;;;25.52;45.64
55656;BME280;41530;52.382;5.270;2023-06-22T04:16:26;102107.16;;;25.52;45.83
55656;BME280;41530;52.382;5.270;2023-06-22T04:18:56;102123.81;;;25.64;45.55
55656;BME280;41530;52.382;5.270;2023-06-22T04:21:27;102094.00;;;25.49;45.60
55656;BME280;41530;52.382;5.270;2023-06-22T04:23:54;102087.13;;;25.46;45.69
55656;BME280;41530;52.382;5.270;2023-06-22T04:26:24;102102.59;;;25.52;45.69
55656;BME280;41530;52.382;5.270;2023-06-22T04:29:06;102104.28;;;25.45;45.59
55656;BME280;41530;52.382;5.270;2023-06-22T04:31:46;102087.16;;;25.38;45.92
55656;BME280;41530;52.382;5.270;2023-06-22T04:34:22;102090.69;;;25.39;45.99
55656;BME280;41530;52.382;5.270;2023-06-22T04:36:57;102090.69;;;25.39;45.75
55656;BME280;41530;52.382;5.270;2023-06-22T04:39:36;102102.81;;;25.43;46.27
55656;BME280;41530;52.382;5.270;2023-06-22T04:42:17;102082.28;;;25.34;46.82
55656;BME280;41530;52.382;5.270;2023-06-22T04:44:53;102079.75;;;25.32;45.97
55656;BME280;41530;52.382;5.270;2023-06-22T04:47:22;102090.69;;;25.39;46.33
55656;BME280;41530;52.382;5.270;2023-06-22T04:49:53;102089.00;;;25.38;46.24
55656;BME280;41530;52.382;5.270;2023-06-22T04:52:25;102085.81;;;25.42;45.95
55656;BME280;41530;52.382;5.270;2023-06-22T04:54:59;102088.13;;;25.45;46.24
55656;BME280;41530;52.382;5.270;2023-06-22T04:57:37;102093.00;;;25.50;46.40
55656;BME280;41530;52.382;5.270;2023-06-22T05:00:15;102084.75;;;25.43;46.48
55656;BME280;41530;52.382;5.270;2023-06-22T05:02:47;102092.66;;;25.53;46.55
55656;BME280;41530;52.382;5.270;2023-06-22T05:05:18;102087.94;;;25.47;46.67
55656;BME280;41530;52.382;5.270;2023-06-22T05:07:46;102109.31;;;25.56;46.57
55656;BME280;41530;52.382;5.270;2023-06-22T05:10:28;102098.88;;;25.53;46.42
55656;BME280;41530;52.382;5.270;2023-06-22T05:13:06;102089.13;;;25.52;46.86
55656;BME280;41530;52.382;5.270;2023-06-22T05:15:53;102109.31;;;25.65;47.29
55656;BME280;41530;52.382;5.270;2023-06-22T05:18:39;102097.03;;;25.62;47.30
55656;BME280;41530;52.382;5.270;2023-06-22T05:21:40;102096.19;;;25.62;47.22
55656;BME280;41530;52.382;5.270;2023-06-22T05:27:32;102087.41;;;25.68;46.50
55656;BME280;41530;52.382;5.270;2023-06-22T05:30:08;102093.25;;;25.71;47.24
55656;BME280;41530;52.382;5.270;2023-06-22T05:32:49;102079.78;;;25.71;47.15
55656;BME280;41530;52.382;5.270;2023-06-22T05:35:23;102087.19;;;25.77;46.86
55656;BME280;41530;52.382;5.270;2023-06-22T05:38:00;102093.75;;;25.75;46.82
55656;BME280;41530;52.382;5.270;2023-06-22T05:40:34;102073.06;;;25.59;47.63
55656;BME280;41530;52.382;5.270;2023-06-22T05:43:07;102087.09;;;25.63;47.17
55656;BME280;41530;52.382;5.270;2023-06-22T05:46:08;102076.16;;;25.56;47.98
55656;BME280;41530;52.382;5.270;2023-06-22T05:48:40;102120.06;;;25.73;48.05
55656;BME280;41530;52.382;5.270;2023-06-22T05:51:12;102094.16;;;25.55;48.00
55656;BME280;41530;52.382;5.270;2023-06-22T05:53:45;102104.25;;;25.62;48.04
55656;BME280;41530;52.382;5.270;2023-06-22T05:56:20;102099.34;;;25.57;48.18
55656;BME280;41530;52.382;5.270;2023-06-22T05:58:53;102108.94;;;25.60;48.67
55656;BME280;41530;52.382;5.270;2023-06-22T06:01:20;102101.88;;;25.58;48.44
55656;BME280;41530;52.382;5.270;2023-06-22T06:03:52;102119.44;;;25.63;48.92
55656;BME280;41530;52.382;5.270;2023-06-22T06:06:24;102106.63;;;25.56;48.74
55656;BME280;41530;52.382;5.270;2023-06-22T06:08:59;102094.84;;;25.49;48.13
55656;BME280;41530;52.382;5.270;2023-06-22T06:11:33;102111.19;;;25.56;48.73
55656;BME280;41530;52.382;5.270;2023-06-22T06:14:08;102113.34;;;25.61;48.90
55656;BME280;41530;52.382;5.270;2023-06-22T06:16:41;102112.34;;;25.62;48.82
55656;BME280;41530;52.382;5.270;2023-06-22T06:19:11;102111.34;;;25.63;49.38
55656;BME280;41530;52.382;5.270;2023-06-22T06:21:43;102107.66;;;25.55;48.82
55656;BME280;41530;52.382;5.270;2023-06-22T06:24:12;102116.38;;;25.57;49.04
55656;BME280;41530;52.382;5.270;2023-06-22T06:26:51;102100.91;;;25.51;49.39
55656;BME280;41530;52.382;5.270;2023-06-22T06:29:36;102111.50;;;25.61;49.30
55656;BME280;41530;52.382;5.270;2023-06-22T06:32:16;102097.50;;;25.57;49.30
55656;BME280;41530;52.382;5.270;2023-06-22T06:34:51;102094.34;;;25.54;48.92
55656;BME280;41530;52.382;5.270;2023-06-22T06:37:40;102093.50;;;25.53;49.53
55656;BME280;41530;52.382;5.270;2023-06-22T06:40:14;102108.59;;;25.71;49.52
55656;BME280;41530;52.382;5.270;2023-06-22T06:42:47;102087.56;;;25.58;49.25
55656;BME280;41530;52.382;5.270;2023-06-22T06:45:28;102089.59;;;25.64;49.38
55656;BME280;41530;52.382;5.270;2023-06-22T06:48:10;102086.84;;;25.72;49.42
55656;BME280;41530;52.382;5.270;2023-06-22T06:50:42;102079.66;;;25.65;49.34
55656;BME280;41530;52.382;5.270;2023-06-22T06:53:29;102079.50;;;25.66;49.60
55656;BME280;41530;52.382;5.270;2023-06-22T06:56:05;102079.84;;;25.63;49.46
55656;BME280;41530;52.382;5.270;2023-06-22T06:58:37;102077.94;;;25.72;49.12
55656;BME280;41530;52.382;5.270;2023-06-22T07:01:24;102088.69;;;25.80;49.23
55656;BME280;41530;52.382;5.270;2023-06-22T07:04:02;102068.38;;;25.69;49.78
55656;BME280;41530;52.382;5.270;2023-06-22T07:07:04;102075.06;;;25.73;48.91
55656;BME280;41530;52.382;5.270;2023-06-22T07:09:58;102095.38;;;25.84;48.89
55656;BME280;41530;52.382;5.270;2023-06-22T07:12:31;102092.16;;;25.88;48.72
55656;BME280;41530;52.382;5.270;2023-06-22T07:15:16;102076.41;;;25.77;48.81
55656;BME280;41530;52.382;5.270;2023-06-22T07:17:57;102077.25;;;25.78;48.31
55656;BME280;41530;52.382;5.270;2023-06-22T07:20:43;102075.88;;;25.82;49.00
55656;BME280;41530;52.382;5.270;2023-06-22T07:23:42;102063.25;;;25.74;49.27
55656;BME280;41530;52.382;5.270;2023-06-22T07:26:44;102074.31;;;25.87;49.00
55656;BME280;41530;52.382;5.270;2023-06-22T07:29:41;102079.47;;;25.97;49.56
55656;BME280;41530;52.382;5.270;2023-06-22T07:32:13;102068.41;;;25.92;48.99
55656;BME280;41530;52.382;5.270;2023-06-22T07:34:42;102062.66;;;25.95;48.71
55656;BME280;41530;52.382;5.270;2023-06-22T07:37:15;102052.72;;;25.96;48.99
55656;BME280;41530;52.382;5.270;2023-06-22T07:40:12;102058.22;;;26.02;49.36
55656;BME280;41530;52.382;5.270;2023-06-22T07:43:02;102054.50;;;26.03;48.98
55656;BME280;41530;52.382;5.270;2023-06-22T07:46:10;102069.25;;;26.15;49.07
55656;BME280;41530;52.382;5.270;2023-06-22T07:48:56;102042.53;;;26.06;48.00
55656;BME280;41530;52.382;5.270;2023-06-22T07:54:32;102040.94;;;26.11;49.01
55656;BME280;41530;52.382;5.270;2023-06-22T07:57:06;102033.69;;;26.12;48.44
55656;BME280;41530;52.382;5.270;2023-06-22T07:59:39;102033.53;;;26.13;48.55
55656;BME280;41530;52.382;5.270;2023-06-22T08:02:12;102027.84;;;26.08;48.16
55656;BME280;41530;52.382;5.270;2023-06-22T08:04:50;102041.59;;;26.13;48.30
55656;BME280;41530;52.382;5.270;2023-06-22T08:07:48;102032.41;;;26.08;47.98
55656;BME280;41530;52.382;5.270;2023-06-22T08:14:05;102045.94;;;26.22;47.94
55656;BME280;41530;52.382;5.270;2023-06-22T08:16:51;102027.78;;;26.16;48.48
55656;BME280;41530;52.382;5.270;2023-06-22T08:19:37;102056.53;;;26.32;48.20
55656;BME280;41530;52.382;5.270;2023-06-22T08:22:16;102041.00;;;26.26;48.46
55656;BME280;41530;52.382;5.270;2023-06-22T08:24:58;102046.56;;;26.33;48.74
55656;BME280;41530;52.382;5.270;2023-06-22T08:27:25;102045.56;;;26.34;47.79
55656;BME280;41530;52.382;5.270;2023-06-22T08:30:00;102028.53;;;26.33;47.60
55656;BME280;41530;52.382;5.270;2023-06-22T08:32:30;102036.34;;;26.43;47.79
55656;BME280;41530;52.382;5.270;2023-06-22T08:35:00;102009.28;;;26.36;47.69
55656;BME280;41530;52.382;5.270;2023-06-22T08:37:38;102004.91;;;26.35;47.48
55656;BME280;41530;52.382;5.270;2023-06-22T08:40:21;102017.59;;;26.49;48.12
55656;BME280;41530;52.382;5.270;2023-06-22T08:43:10;102000.63;;;26.41;47.56
55656;BME280;41530;52.382;5.270;2023-06-22T08:45:47;102002.13;;;26.43;47.64
55656;BME280;41530;52.382;5.270;2023-06-22T08:48:21;101994.69;;;26.45;47.87
55656;BME280;41530;52.382;5.270;2023-06-22T08:50:49;101988.44;;;26.45;47.75
55656;BME280;41530;52.382;5.270;2023-06-22T08:53:22;101990.97;;;26.46;47.40
55656;BME280;41530;52.382;5.270;2023-06-22T08:55:57;102012.59;;;26.61;47.83
55656;BME280;41530;52.382;5.270;2023-06-22T08:58:43;101983.97;;;26.52;47.64
55656;BME280;41530;52.382;5.270;2023-06-22T09:01:18;101987.81;;;26.57;47.30
55656;BME280;41530;52.382;5.270;2023-06-22T09:04:04;101999.81;;;26.70;47.67
55656;BME280;41530;52.382;5.270;2023-06-22T09:07:09;101987.16;;;26.70;47.25
55656;BME280;41530;52.382;5.270;2023-06-22T09:09:38;101991.00;;;26.76;47.25
55656;BME280;41530;52.382;5.270;2023-06-22T09:12:38;101979.25;;;26.69;46.85
55656;BME280;41530;52.382;5.270;2023-06-22T09:15:23;101976.00;;;26.73;47.02
55656;BME280;41530;52.382;5.270;2023-06-22T09:18:05;101991.38;;;26.87;46.96
55656;BME280;41530;52.382;5.270;2023-06-22T09:20:34;101979.25;;;26.83;47.42
55656;BME280;41530;52.382;5.270;2023-06-22T09:23:07;101971.06;;;26.77;46.95
55656;BME280;41530;52.382;5.270;2023-06-22T09:25:36;101983.53;;;26.92;46.82
55656;BME280;41530;52.382;5.270;2023-06-22T09:28:20;101981.84;;;26.91;47.07
55656;BME280;41530;52.382;5.270;2023-06-22T09:30:53;101976.00;;;26.88;46.93
55656;BME280;41530;52.382;5.270;2023-06-22T09:33:27;101962.94;;;26.91;46.47
55656;BME280;41530;52.382;5.270;2023-06-22T09:35:54;101985.16;;;27.02;46.72
55656;BME280;41530;52.382;5.270;2023-06-22T09:38:57;101958.97;;;26.87;46.65
55656;BME280;41530;52.382;5.270;2023-06-22T09:41:33;101967.66;;;26.98;46.58
55656;BME280;41530;52.382;5.270;2023-06-22T09:44:03;101969.97;;;27.01;46.55
55656;BME280;41530;52.382;5.270;2023-06-22T09:46:47;101974.44;;;27.08;46.67
55656;BME280;41530;52.382;5.270;2023-06-22T09:52:34;101974.38;;;27.02;46.72
55656;BME280;41530;52.382;5.270;2023-06-22T09:55:21;101982.72;;;27.07;46.23
55656;BME280;41530;52.382;5.270;2023-06-22T09:57:51;101973.78;;;27.06;46.25
55656;BME280;41530;52.382;5.270;2023-06-22T10:00:23;101976.66;;;27.05;45.99
55656;BME280;41530;52.382;5.270;2023-06-22T10:03:10;101957.69;;;26.98;46.20
55656;BME280;41530;52.382;5.270;2023-06-22T10:06:03;101964.84;;;27.06;46.60
55656;BME280;41530;52.382;5.270;2023-06-22T10:08:32;101970.06;;;27.07;46.50
55656;BME280;41530;52.382;5.270;2023-06-22T10:11:06;101947.72;;;26.99;46.21
55656;BME280;41530;52.382;5.270;2023-06-22T10:13:57;101953.78;;;27.01;46.20
55656;BME280;41530;52.382;5.270;2023-06-22T10:16:30;101954.44;;;27.03;46.35
55656;BME280;41530;52.382;5.270;2023-06-22T10:19:25;101953.38;;;27.04;46.36
55656;BME280;41530;52.382;5.270;2023-06-22T10:22:04;101937.47;;;26.94;46.75
55656;BME280;41530;52.382;5.270;2023-06-22T10:24:44;101957.38;;;27.08;46.82
55656;BME280;41530;52.382;5.270;2023-06-22T10:27:28;101945.28;;;27.04;47.25
55656;BME280;41530;52.382;5.270;2023-06-22T10:30:12;101935.44;;;26.96;47.06
55656;BME280;41530;52.382;5.270;2023-06-22T10:32:48;101937.56;;;27.01;47.22
55656;BME280;41530;52.382;5.270;2023-06-22T10:35:25;101931.03;;;26.95;47.01
55656;BME280;41530;52.382;5.270;2023-06-22T10:38:04;101944.72;;;27.08;47.18
55656;BME280;41530;52.382;5.270;2023-06-22T10:40:49;101931.34;;;27.00;47.17
55656;BME280;41530;52.382;5.270;2023-06-22T10:43:34;101930.72;;;26.90;47.38
55656;BME280;41530;52.382;5.270;2023-06-22T10:46:13;101938.31;;;26.94;47.36
55656;BME280;41530;52.382;5.270;2023-06-22T10:48:57;101960.47;;;27.05;48.08
55656;BME280;41530;52.382;5.270;2023-06-22T10:51:25;101964.19;;;27.04;47.22
55656;BME280;41530;52.382;5.270;2023-06-22T10:54:01;101948.09;;;26.95;47.40
55656;BME280;41530;52.382;5.270;2023-06-22T10:57:06;101952.28;;;26.98;48.01
55656;BME280;41530;52.382;5.270;2023-06-22T10:59:51;101976.66;;;27.05;47.88
55656;BME280;41530;52.382;5.270;2023-06-22T11:05:03;101953.13;;;26.99;47.43
55656;BME280;41530;52.382;5.270;2023-06-22T11:07:43;101957.97;;;27.03;48.09
55656;BME280;41530;52.382;5.270;2023-06-22T11:10:18;101961.69;;;27.02;48.14
55656;BME280;41530;52.382;5.270;2023-06-22T11:12:53;101980.03;;;27.07;47.77
55656;BME280;41530;52.382;5.270;2023-06-22T11:15:49;101971.66;;;27.02;47.93
55656;BME280;41530;52.382;5.270;2023-06-22T11:18:22;101957.69;;;26.98;48.39
55656;BME280;41530;52.382;5.270;2023-06-22T11:21:33;101961.59;;;26.95;48.09
55656;BME280;41530;52.382;5.270;2023-06-22T11:24:13;101965.13;;;26.96;47.71
55656;BME280;41530;52.382;5.270;2023-06-22T11:26:43;101953.38;;;26.89;47.96
55656;BME280;41530;52.382;5.270;2023-06-22T11:29:45;101970.34;;;26.98;49.00
55656;BME280;41530;52.382;5.270;2023-06-22T11:32:12;101955.88;;;26.90;48.25
55656;BME280;41530;52.382;5.270;2023-06-22T11:34:41;101958.72;;;26.97;48.76
55656;BME280;41530;52.382;5.270;2023-06-22T11:37:22;101952.47;;;26.96;48.23
55656;BME280;41530;52.382;5.270;2023-06-22T11:40:05;101941.53;;;26.90;48.89
55656;BME280;41530;52.382;5.270;2023-06-22T11:42:38;101960.84;;;27.02;49.98
55656;BME280;41530;52.382;5.270;2023-06-22T11:45:30;101941.19;;;26.93;49.09
55656;BME280;41530;52.382;5.270;2023-06-22T11:48:13;101925.25;;;26.83;49.08
55656;BME280;41530;52.382;5.270;2023-06-22T11:51:05;101939.16;;;26.95;49.12
55656;BME280;41530;52.382;5.270;2023-06-22T11:53:42;101941.47;;;26.98;48.67
55656;BME280;41530;52.382;5.270;2023-06-22T11:59:09;101930.53;;;26.91;46.67
55656;BME280;41530;52.382;5.270;2023-06-22T12:01:41;101928.59;;;26.85;46.38
55656;BME280;41530;52.382;5.270;2023-06-22T12:05:00;101917.25;;;26.75;45.49
55656;BME280;41530;52.382;5.270;2023-06-22T12:07:37;101928.91;;;26.76;45.72
55656;BME280;41530;52.382;5.270;2023-06-22T12:10:15;101903.00;;;26.67;46.37
55656;BME280;41530;52.382;5.270;2023-06-22T12:12:57;101911.56;;;26.70;46.36
55656;BME280;41530;52.382;5.270;2023-06-22T12:15:42;101917.44;;;26.74;46.31
55656;BME280;41530;52.382;5.270;2023-06-22T12:18:15;101892.31;;;26.73;46.36
55656;BME280;41530;52.382;5.270;2023-06-22T12:21:16;101919.19;;;26.81;46.15
55656;BME280;41530;52.382;5.270;2023-06-22T12:23:46;101899.38;;;26.74;45.92
55656;BME280;41530;52.382;5.270;2023-06-22T12:26:24;101884.13;;;26.67;45.43
55656;BME280;41530;52.382;5.270;2023-06-22T12:29:01;101893.34;;;26.72;45.44
55656;BME280;41530;52.382;5.270;2023-06-22T12:31:30;101910.63;;;26.78;45.54
55656;BME280;41530;52.382;5.270;2023-06-22T12:34:10;101885.31;;;26.64;46.35
55656;BME280;41530;52.382;5.270;2023-06-22T12:36:41;101893.69;;;26.69;45.46
55656;BME280;41530;52.382;5.270;2023-06-22T12:39:10;101896.22;;;26.71;46.13
55656;BME280;41530;52.382;5.270;2023-06-22T12:41:43;101894.06;;;26.66;45.95
55656;BME280;41530;52.382;5.270;2023-06-22T12:44:10;101878.81;;;26.58;46.29
55656;BME280;41530;52.382;5.270;2023-06-22T12:46:49;101878.91;;;26.65;46.04
55656;BME280;41530;52.382;5.270;2023-06-22T12:49:18;101880.97;;;26.63;46.50
55656;BME280;41530;52.382;5.270;2023-06-22T12:51:49;101900.41;;;26.73;46.72
55656;BME280;41530;52.382;5.270;2023-06-22T12:54:24;101881.22;;;26.68;47.30
55656;BME280;41530;52.382;5.270;2023-06-22T12:57:20;101887.94;;;26.72;47.45
55656;BME280;41530;52.382;5.270;2023-06-22T13:00:03;101888.13;;;26.71;47.99
55656;BME280;41530;52.382;5.270;2023-06-22T13:02:59;101867.06;;;26.66;47.56
55656;BME280;41530;52.382;5.270;2023-06-22T13:05:40;101867.91;;;26.67;47.83
55656;BME280;41530;52.382;5.270;2023-06-22T13:08:18;101882.16;;;26.75;47.90
55656;BME280;41530;52.382;5.270;2023-06-22T13:11:22;101875.94;;;26.75;48.55
55656;BME280;41530;52.382;5.270;2023-06-22T13:14:02;101865.41;;;26.65;47.97
55656;BME280;41530;52.382;5.270;2023-06-22T13:16:48;101854.16;;;26.61;48.59
55656;BME280;41530;52.382;5.270;2023-06-22T13:19:34;101848.09;;;26.59;48.88
55656;BME280;41530;52.382;5.270;2023-06-22T13:22:33;101862.97;;;26.70;49.40
55656;BME280;41530;52.382;5.270;2023-06-22T13:25:47;101844.00;;;26.63;49.18
55656;BME280;41530;52.382;5.270;2023-06-22T13:28:22;101869.09;;;26.79;49.09
55656;BME280;41530;52.382;5.270;2023-06-22T13:31:07;101851.53;;;26.68;48.87
55656;BME280;41530;52.382;5.270;2023-06-22T13:33:53;101836.09;;;26.62;48.73
55656;BME280;41530;52.382;5.270;2023-06-22T13:36:28;101844.47;;;26.67;49.42
55656;BME280;41530;52.382;5.270;2023-06-22T13:39:11;101833.41;;;26.62;48.88
55656;BME280;41530;52.382;5.270;2023-06-22T13:41:54;101830.97;;;26.52;50.45
55656;BME280;41530;52.382;5.270;2023-06-22T14:40:50;101828.69;;;25.60;52.64
55656;BME280;41530;52.382;5.270;2023-06-22T14:43:37;101834.25;;;25.58;52.31
55656;BME280;41530;52.382;5.270;2023-06-22T14:46:03;101831.56;;;25.58;54.17
55656;BME280;41530;52.382;5.270;2023-06-22T14:48:30;101832.38;;;25.67;52.72
55656;BME280;41530;52.382;5.270;2023-06-22T14:50:57;101832.94;;;25.77;53.37
55656;BME280;41530;52.382;5.270;2023-06-22T14:53:23;101830.34;;;25.69;53.54
55656;BME280;41530;52.382;5.270;2023-06-22T14:55:50;101825.31;;;25.66;52.49
55656;BME280;41530;52.382;5.270;2023-06-22T14:58:17;101825.47;;;25.64;53.31
55656;BME280;41530;52.382;5.270;2023-06-22T15:00:44;101827.44;;;25.47;52.70
55656;BME280;41530;52.382;5.270;2023-06-22T15:03:11;101826.06;;;25.51;53.27
55656;BME280;41530;52.382;5.270;2023-06-22T15:05:45;101825.84;;;25.61;52.78